Time;durP1;ratioP1;P1;durP2;ratioP2;P2;SDS_P1;SDS_P2;PMS_P1;PMS_P2;Temp;Humidity;BMP_temperature;BMP_pressure;BME280_temperature;BME280_humidity;BME280_pressure;Samples;Min_cycle;Max_cycle;Signal;HPM_P1;HPM_P2
2022/08/11 00:01:34;;;;;;;;;;;23.30;69.80;;;;;;5071890;28;19913;-73
2022/08/11 00:04:02;;;;;;;;;;;23.30;69.80;;;;;;5054254;28;19909;-73
2022/08/11 00:06:30;;;;;;;;;;;23.30;69.90;;;;;;5072535;28;19908;-73
2022/08/11 00:08:56;;;;;;;;;;;23.20;69.90;;;;;;5071953;28;19964;-72
2022/08/11 00:11:31;;;;;;;;;;;23.20;70.00;;;;;;5071955;28;19908;-73
2022/08/11 00:13:57;;;;;;;;;;;23.20;70.10;;;;;;5072290;28;19963;-73
2022/08/11 00:16:24;;;;;;;;;;;23.20;70.20;;;;;;5071832;28;19915;-72
2022/08/11 00:18:54;;;;;;;;;;;23.20;70.30;;;;;;5053830;28;19908;-73
2022/08/11 00:21:21;;;;;;;;;;;23.10;70.40;;;;;;5071836;28;19912;-72
2022/08/11 00:23:54;;;;;;;;;;;23.10;70.50;;;;;;5054059;28;19915;-72
2022/08/11 00:26:21;;;;;;;;;;;23.10;70.60;;;;;;5054136;28;20051;-72
2022/08/11 00:28:47;;;;;;;;;;;23.00;70.70;;;;;;5071649;28;20016;-71
2022/08/11 00:31:27;;;;;;;;;;;23.00;70.70;;;;;;5071639;28;19932;-73
2022/08/11 00:33:53;;;;;;;;;;;23.00;70.80;;;;;;5071773;28;19915;-73
2022/08/11 00:36:22;;;;;;;;;;;23.00;71.00;;;;;;5071494;28;19915;-72
2022/08/11 00:38:52;;;;;;;;;;;23.00;71.10;;;;;;5071354;28;19977;-73
2022/08/11 00:41:23;;;;;;;;;;;22.90;71.10;;;;;;5053505;28;19912;-73
2022/08/11 00:43:55;;;;;;;;;;;22.90;71.30;;;;;;5071492;28;20430;-73
2022/08/11 00:46:22;;;;;;;;;;;22.90;71.30;;;;;;5085530;22;20396;-65
2022/08/11 00:48:54;;;;;;;;;;;22.90;71.30;;;;;;5071547;28;19909;-65
2022/08/11 00:51:37;;;;;;;;;;;22.90;71.40;;;;;;5071649;28;19915;-64
2022/08/11 00:54:22;;;;;;;;;;;22.80;71.40;;;;;;5071757;28;20175;-65
2022/08/11 00:57:07;;;;;;;;;;;22.80;71.40;;;;;;5071399;28;20280;-65
2022/08/11 00:59:39;;;;;;;;;;;22.80;71.50;;;;;;5071355;28;19908;-65
2022/08/11 01:02:17;;;;;;;;;;;22.80;71.60;;;;;;5071697;28;19957;-64
2022/08/11 01:05:01;;;;;;;;;;;22.80;71.70;;;;;;5071450;28;20356;-65
2022/08/11 01:07:30;;;;;;;;;;;22.70;71.80;;;;;;5071221;28;19908;-65
2022/08/11 01:10:14;;;;;;;;;;;22.70;72.10;;;;;;5071130;28;19909;-65
2022/08/11 01:12:59;;;;;;;;;;;22.70;72.20;;;;;;5071364;28;19908;-64
2022/08/11 01:15:28;;;;;;;;;;;22.60;72.20;;;;;;5071346;28;19923;-64
2022/08/11 01:18:12;;;;;;;;;;;22.60;72.40;;;;;;5071310;28;20299;-65
2022/08/11 01:20:57;;;;;;;;;;;22.60;73.20;;;;;;5070989;28;19912;-64
2022/08/11 01:23:41;;;;;;;;;;;22.60;72.80;;;;;;5053342;28;19908;-65
2022/08/11 01:26:26;;;;;;;;;;;22.50;72.90;;;;;;5071400;28;19915;-64
2022/08/11 01:29:07;;;;;;;;;;;22.50;73.00;;;;;;5070978;28;20007;-65
2022/08/11 01:31:55;;;;;;;;;;;22.50;73.20;;;;;;5071685;28;19909;-64
2022/08/11 01:34:45;;;;;;;;;;;22.40;73.30;;;;;;5071316;28;19908;-64
2022/08/11 01:37:17;;;;;;;;;;;22.40;73.40;;;;;;5042719;28;20380;-64
2022/08/11 01:39:56;;;;;;;;;;;22.40;73.40;;;;;;5070947;28;19908;-65
2022/08/11 01:45:24;;;;;;;;;;;22.40;73.40;;;;;;5071316;28;19961;-65
2022/08/11 01:48:02;;;;;;;;;;;22.40;73.60;;;;;;5070896;28;19916;-64
2022/08/11 01:50:46;;;;;;;;;;;22.30;73.40;;;;;;5070795;28;19915;-64
2022/08/11 01:53:12;;;;;;;;;;;22.30;73.50;;;;;;5071045;28;19931;-64
2022/08/11 01:55:38;;;;;;;;;;;22.30;73.50;;;;;;5071112;28;20360;-65
2022/08/11 01:58:05;;;;;;;;;;;22.30;73.70;;;;;;5074823;28;19912;-65
2022/08/11 02:00:34;;;;;;;;;;;22.30;73.90;;;;;;5074390;28;19916;-64
2022/08/11 02:03:00;;;;;;;;;;;22.30;74.00;;;;;;5074579;28;20384;-65
2022/08/11 02:05:29;;;;;;;;;;;22.20;74.20;;;;;;5074641;28;19912;-63
2022/08/11 02:08:00;;;;;;;;;;;22.20;74.40;;;;;;5074372;28;19908;-64
2022/08/11 02:13:21;;;;;;;;;;;22.10;74.50;;;;;;5074588;28;19908;-64
2022/08/11 02:15:53;;;;;;;;;;;22.10;74.80;;;;;;5074525;28;20323;-64
2022/08/11 02:24:35;;;;;;;;;;;21.90;75.40;;;;;;5074304;28;19943;-65
2022/08/11 02:27:13;;;;;;;;;;;22.00;75.40;;;;;;5066129;28;20319;-65
2022/08/11 02:30:03;;;;;;;;;;;21.90;75.50;;;;;;5073970;28;19915;-65
2022/08/11 02:35:44;;;;;;;;;;;21.90;75.50;;;;;;5074219;28;19938;-65
2022/08/11 02:38:16;;;;;;;;;;;21.90;75.60;;;;;;5074021;28;19908;-64
2022/08/11 02:40:51;;;;;;;;;;;21.90;75.70;;;;;;5073826;28;20283;-64
2022/08/11 02:43:17;;;;;;;;;;;21.80;75.70;;;;;;5074307;28;19909;-65
2022/08/11 02:45:46;;;;;;;;;;;21.80;76.00;;;;;;5073941;28;20310;-64
2022/08/11 02:51:19;;;;;;;;;;;21.70;76.10;;;;;;5073969;28;19908;-64
2022/08/11 02:53:48;;;;;;;;;;;21.70;76.20;;;;;;5073935;28;19908;-64
2022/08/11 02:56:30;;;;;;;;;;;21.70;76.20;;;;;;5074209;28;19918;-65
2022/08/11 03:02:02;;;;;;;;;;;21.60;76.30;;;;;;5073399;28;19922;-64
2022/08/11 03:04:50;;;;;;;;;;;21.60;76.20;;;;;;5073764;28;19915;-64
2022/08/11 03:07:25;;;;;;;;;;;21.60;77.10;;;;;;5073110;28;20364;-64
2022/08/11 03:10:13;;;;;;;;;;;21.60;76.60;;;;;;5072994;28;20139;-65
2022/08/11 03:18:25;;;;;;;;;;;21.50;76.70;;;;;;5073371;28;20288;-64
2022/08/11 03:21:06;;;;;;;;;;;21.50;76.90;;;;;;5072996;28;19966;-64
2022/08/11 03:23:35;;;;;;;;;;;21.40;77.10;;;;;;5073094;28;20356;-65
2022/08/11 03:26:13;;;;;;;;;;;21.30;77.40;;;;;;5073077;28;19908;-64
2022/08/11 03:29:00;;;;;;;;;;;21.30;77.40;;;;;;5073490;28;19908;-65
2022/08/11 03:31:29;;;;;;;;;;;21.30;77.40;;;;;;5062579;28;19908;-64
2022/08/11 03:34:07;;;;;;;;;;;21.30;77.40;;;;;;5055451;28;20273;-64
2022/08/11 03:36:45;;;;;;;;;;;21.30;77.60;;;;;;5054697;28;19991;-65
2022/08/11 03:39:30;;;;;;;;;;;21.20;77.80;;;;;;5054665;28;20010;-64
2022/08/11 03:41:56;;;;;;;;;;;21.20;77.80;;;;;;5072763;28;19919;-65
2022/08/11 03:44:37;;;;;;;;;;;21.20;78.10;;;;;;5072647;28;19908;-63
2022/08/11 03:47:13;;;;;;;;;;;21.20;78.10;;;;;;5072401;28;20273;-64
2022/08/11 03:49:45;;;;;;;;;;;21.20;78.40;;;;;;5072364;28;19966;-64
2022/08/11 03:52:26;;;;;;;;;;;21.10;78.50;;;;;;5072669;28;20022;-64
2022/08/11 03:55:11;;;;;;;;;;;21.10;78.40;;;;;;5072530;28;19916;-64
2022/08/11 03:57:52;;;;;;;;;;;21.20;78.40;;;;;;5072417;28;20451;-64
2022/08/11 04:00:18;;;;;;;;;;;21.20;78.30;;;;;;5072115;28;19916;-65
2022/08/11 04:03:02;;;;;;;;;;;21.20;78.30;;;;;;5054609;28;20491;-64
2022/08/11 04:05:39;;;;;;;;;;;21.10;78.50;;;;;;5072314;28;20010;-65
2022/08/11 04:08:14;;;;;;;;;;;21.00;78.60;;;;;;5072233;28;19908;-64
2022/08/11 04:11:13;;;;;;;;;;;21.00;78.90;;;;;;5072221;28;19912;-63
2022/08/11 04:15:58;;;;;;;;;;;21.00;79.10;;;;;;5038210;28;19910;-64
2022/08/11 04:17:02;;;;;;;;;;;21.00;79.30;;;;;;5072133;28;19912;-64
2022/08/11 04:19:31;;;;;;;;;;;21.00;79.40;;;;;;5071691;28;19915;-64
2022/08/11 04:21:56;;;;;;;;;;;21.00;79.30;;;;;;5072069;28;19912;-65
2022/08/11 04:24:41;;;;;;;;;;;21.00;79.30;;;;;;5071969;28;19912;-64
2022/08/11 04:27:25;;;;;;;;;;;20.90;79.50;;;;;;5071783;28;19914;-64
2022/08/11 04:30:09;;;;;;;;;;;20.90;79.60;;;;;;5071679;28;19913;-63
2022/08/11 04:32:44;;;;;;;;;;;20.90;79.70;;;;;;5072191;28;19915;-64
2022/08/11 04:35:10;;;;;;;;;;;20.90;79.80;;;;;;5072231;28;20356;-64
2022/08/11 04:37:48;;;;;;;;;;;20.90;80.00;;;;;;5071444;28;19908;-64
2022/08/11 04:40:18;;;;;;;;;;;20.80;80.30;;;;;;5071350;28;19912;-65
2022/08/11 04:45:56;;;;;;;;;;;20.80;80.40;;;;;;5071549;28;19908;-63
2022/08/11 05:03:07;;;;;;;;;;;20.80;81.00;;;;;;5071638;28;19908;-65
2022/08/11 05:05:40;;;;;;;;;;;20.80;81.00;;;;;;5071520;28;19928;-64
2022/08/11 05:08:27;;;;;;;;;;;20.80;81.00;;;;;;5071656;28;19912;-63
2022/08/11 05:10:56;;;;;;;;;;;20.80;80.30;;;;;;5071309;28;19920;-65
2022/08/11 05:35:44;;;;;;;;;;;21.00;81.00;;;;;;5075122;28;19908;-65
2022/08/11 05:57:47;;;;;;;;;;;21.20;81.10;;;;;;5075016;28;20284;-65
2022/08/11 06:00:13;;;;;;;;;;;21.30;80.90;;;;;;5074541;28;19913;-65
2022/08/11 06:02:40;;;;;;;;;;;21.30;80.70;;;;;;5074796;28;19915;-64
2022/08/11 06:05:06;;;;;;;;;;;21.30;80.70;;;;;;5074755;28;20583;-65
2022/08/11 06:07:32;;;;;;;;;;;21.40;80.60;;;;;;5074600;28;19908;-65
2022/08/11 06:09:59;;;;;;;;;;;21.40;80.70;;;;;;5074210;28;19908;-65
2022/08/11 06:12:32;;;;;;;;;;;21.40;80.50;;;;;;5074854;28;19912;-64
2022/08/11 06:15:05;;;;;;;;;;;21.50;80.40;;;;;;5074681;28;19940;-65
2022/08/11 06:17:32;;;;;;;;;;;21.50;80.20;;;;;;5074229;28;19920;-65
2022/08/11 06:19:59;;;;;;;;;;;21.60;80.40;;;;;;5074339;28;19908;-64
2022/08/11 06:22:25;;;;;;;;;;;21.60;79.90;;;;;;5074338;28;19908;-65
2022/08/11 06:24:55;;;;;;;;;;;21.60;79.50;;;;;;5074496;28;19946;-64
2022/08/11 06:27:21;;;;;;;;;;;21.70;79.60;;;;;;5074206;28;19916;-64
2022/08/11 06:29:50;;;;;;;;;;;21.70;79.70;;;;;;5074100;28;20150;-64
2022/08/11 06:32:17;;;;;;;;;;;21.80;79.30;;;;;;5074177;28;19974;-64
2022/08/11 06:35:02;;;;;;;;;;;21.80;79.00;;;;;;5074267;28;19948;-64
2022/08/11 06:37:40;;;;;;;;;;;21.80;79.10;;;;;;5077763;28;19909;-65
2022/08/11 06:40:06;;;;;;;;;;;21.90;79.00;;;;;;5078030;28;19981;-64
2022/08/11 06:43:04;;;;;;;;;;;21.90;79.10;;;;;;5073252;28;19908;-65
2022/08/11 06:48:25;;;;;;;;;;;22.00;79.10;;;;;;5090483;28;20389;-72
2022/08/11 06:51:12;;;;;;;;;;;22.00;78.80;;;;;;5093504;28;19908;-72
2022/08/11 06:53:39;;;;;;;;;;;22.10;78.30;;;;;;5094060;28;19919;-72
2022/08/11 07:01:46;;;;;;;;;;;22.20;77.40;;;;;;5093444;28;19935;-73
2022/08/11 07:04:16;;;;;;;;;;;22.20;76.80;;;;;;5093461;28;19927;-72
2022/08/11 07:15:42;;;;;;;;;;;22.40;76.70;;;;;;5074624;28;19911;-72
2022/08/11 07:29:43;;;;;;;;;;;22.60;76.50;;;;;;5086388;28;19912;-71
2022/08/11 07:32:24;;;;;;;;;;;22.60;76.60;;;;;;5091668;28;19943;-72
2022/08/11 07:34:54;;;;;;;;;;;22.60;76.50;;;;;;5093009;28;19911;-72
2022/08/11 07:37:20;;;;;;;;;;;22.70;76.40;;;;;;5093046;28;19908;-72
2022/08/11 07:39:47;;;;;;;;;;;22.70;76.20;;;;;;5092517;28;19907;-72
2022/08/11 07:42:15;;;;;;;;;;;22.70;76.00;;;;;;5074523;28;19907;-72
2022/08/11 07:52:57;;;;;;;;;;;22.90;75.50;;;;;;5092461;28;19969;-72
2022/08/11 07:55:30;;;;;;;;;;;23.00;75.40;;;;;;5092173;28;19912;-72
2022/08/11 08:20:09;;;;;;;;;;;23.20;74.70;;;;;;5091614;28;20006;-71
2022/08/11 08:22:35;;;;;;;;;;;23.20;74.80;;;;;;5091973;28;20004;-71
2022/08/11 08:25:01;;;;;;;;;;;23.30;74.70;;;;;;5091880;28;20360;-71
2022/08/11 08:27:27;;;;;;;;;;;23.30;74.60;;;;;;5091711;28;19908;-71
2022/08/11 08:32:39;;;;;;;;;;;23.30;74.70;;;;;;5091605;28;19962;-71
2022/08/11 08:35:05;;;;;;;;;;;23.40;75.00;;;;;;5091784;28;19908;-72
2022/08/11 08:37:31;;;;;;;;;;;23.50;75.50;;;;;;5073467;28;20330;-73
2022/08/11 08:39:57;;;;;;;;;;;23.60;74.80;;;;;;5091804;28;19908;-72
2022/08/11 08:42:28;;;;;;;;;;;23.60;74.30;;;;;;5091817;28;19916;-71
2022/08/11 08:45:00;;;;;;;;;;;23.70;74.90;;;;;;5073462;28;19914;-72
2022/08/11 08:47:27;;;;;;;;;;;23.70;74.50;;;;;;5091352;28;19911;-71
2022/08/11 08:49:58;;;;;;;;;;;23.80;73.70;;;;;;5091364;28;20341;-72
2022/08/11 08:52:25;;;;;;;;;;;23.80;76.00;;;;;;5090281;28;19933;-72
2022/08/11 08:54:53;;;;;;;;;;;23.80;75.40;;;;;;5091167;28;19977;-72
2022/08/11 08:57:21;;;;;;;;;;;23.70;77.40;;;;;;5091213;28;19908;-71
2022/08/11 08:59:48;;;;;;;;;;;23.70;75.80;;;;;;5091129;28;19912;-72
2022/08/11 09:02:15;;;;;;;;;;;23.80;72.90;;;;;;5091546;28;19911;-71
2022/08/11 09:04:43;;;;;;;;;;;23.80;70.80;;;;;;5091344;28;19908;-71
2022/08/11 09:07:11;;;;;;;;;;;23.90;70.40;;;;;;5090523;28;19911;-71
2022/08/11 09:09:47;;;;;;;;;;;23.90;69.90;;;;;;5091059;28;19908;-71
2022/08/11 09:12:14;;;;;;;;;;;23.90;73.10;;;;;;5091276;28;19992;-71
2022/08/11 09:14:59;;;;;;;;;;;23.90;71.60;;;;;;5073425;28;20054;-71
2022/08/11 09:17:27;;;;;;;;;;;24.00;71.60;;;;;;5091169;28;19908;-71
2022/08/11 09:19:57;;;;;;;;;;;23.90;71.30;;;;;;5090880;28;19915;-71
2022/08/11 09:27:55;;;;;;;;;;;23.90;73.10;;;;;;5091081;28;19912;-71
2022/08/11 09:30:25;;;;;;;;;;;24.00;72.90;;;;;;5091114;28;20269;-71
2022/08/11 09:32:59;;;;;;;;;;;23.90;76.00;;;;;;5091062;28;20300;-72
2022/08/11 09:35:26;;;;;;;;;;;24.00;72.10;;;;;;5091147;28;20314;-71
2022/08/11 09:40:39;;;;;;;;;;;24.10;70.50;;;;;;5090804;28;19923;-71
2022/08/11 09:45:53;;;;;;;;;;;24.10;70.20;;;;;;5090888;28;19930;-71
2022/08/11 09:48:20;;;;;;;;;;;24.20;70.70;;;;;;5090972;28;19916;-71
2022/08/11 09:50:48;;;;;;;;;;;24.30;69.60;;;;;;5090990;28;19999;-71
2022/08/11 09:53:15;;;;;;;;;;;24.40;68.80;;;;;;5091079;28;19907;-71
2022/08/11 09:55:42;;;;;;;;;;;24.50;68.40;;;;;;5090648;28;20363;-71
2022/08/11 09:58:15;;;;;;;;;;;24.50;68.30;;;;;;5090802;28;20361;-71
2022/08/11 10:00:41;;;;;;;;;;;24.70;68.10;;;;;;5090169;28;20011;-72
2022/08/11 10:03:36;;;;;;;;;;;24.70;68.20;;;;;;5090546;28;19961;-71
2022/08/11 10:08:47;;;;;;;;;;;24.70;70.30;;;;;;5090226;28;19908;-71
2022/08/11 10:11:14;;;;;;;;;;;24.70;67.40;;;;;;5090342;28;20022;-71
2022/08/11 10:16:27;;;;;;;;;;;24.80;64.70;;;;;;5090689;28;19908;-71
2022/08/11 10:18:54;;;;;;;;;;;24.80;65.50;;;;;;5094044;28;19912;-71
2022/08/11 10:21:27;;;;;;;;;;;24.90;66.20;;;;;;5094175;28;19968;-71
2022/08/11 10:26:53;;;;;;;;;;;25.00;64.80;;;;;;5094135;28;19908;-71
2022/08/11 10:34:53;;;;;;;;;;;25.10;63.50;;;;;;5094177;28;19907;-71
2022/08/11 10:37:21;;;;;;;;;;;25.30;63.30;;;;;;5093880;28;19918;-71
2022/08/11 10:39:47;;;;;;;;;;;25.30;63.50;;;;;;5075860;28;19908;-71
2022/08/11 10:45:00;;;;;;;;;;;25.30;63.90;;;;;;5094021;28;19961;-71
2022/08/11 10:47:35;;;;;;;;;;;25.40;63.70;;;;;;5093564;28;20345;-71
2022/08/11 11:01:11;;;;;;;;;;;25.30;66.10;;;;;;5093361;28;19919;-72
2022/08/11 11:03:37;;;;;;;;;;;25.30;62.90;;;;;;5093885;28;19908;-71
2022/08/11 11:06:24;;;;;;;;;;;25.40;62.30;;;;;;5093356;28;19919;-71
2022/08/11 11:08:52;;;;;;;;;;;25.60;61.10;;;;;;5093101;28;19912;-71
2022/08/11 11:11:19;;;;;;;;;;;25.70;61.00;;;;;;5093187;28;20426;-71
2022/08/11 11:19:18;;;;;;;;;;;25.80;61.30;;;;;;5093040;28;20368;-71
2022/08/11 11:21:45;;;;;;;;;;;25.70;61.60;;;;;;5093084;28;19912;-71
2022/08/11 11:24:38;;;;;;;;;;;25.70;62.00;;;;;;5093084;28;19904;-71
2022/08/11 11:27:17;;;;;;;;;;;25.80;61.00;;;;;;5092988;28;19912;-71
2022/08/11 11:29:54;;;;;;;;;;;25.80;61.10;;;;;;5092585;28;20224;-72
2022/08/11 11:32:23;;;;;;;;;;;25.80;60.80;;;;;;5093017;28;19915;-71
2022/08/11 11:34:52;;;;;;;;;;;25.80;61.50;;;;;;5092867;28;19919;-71
2022/08/11 11:37:18;;;;;;;;;;;25.70;61.10;;;;;;5093061;28;19914;-71
2022/08/11 11:39:44;;;;;;;;;;;25.70;61.20;;;;;;5092586;28;19995;-71
2022/08/11 11:42:10;;;;;;;;;;;25.70;60.70;;;;;;5092695;28;20367;-72
2022/08/11 11:44:37;;;;;;;;;;;25.70;61.20;;;;;;5092804;28;20391;-72
2022/08/11 11:47:04;;;;;;;;;;;25.90;60.90;;;;;;5092393;28;19920;-71
2022/08/11 11:49:38;;;;;;;;;;;26.00;60.70;;;;;;5092608;28;19966;-71
2022/08/11 11:52:05;;;;;;;;;;;26.00;60.10;;;;;;5092591;28;19931;-71
2022/08/11 11:54:35;;;;;;;;;;;26.00;61.00;;;;;;5074185;28;19910;-71
2022/08/11 12:02:35;;;;;;;;;;;25.90;61.10;;;;;;5092386;28;19912;-72
2022/08/11 12:05:01;;;;;;;;;;;25.90;61.40;;;;;;5092136;28;19999;-71
2022/08/11 12:10:12;;;;;;;;;;;25.90;60.70;;;;;;5092133;28;19915;-72
2022/08/11 12:15:23;;;;;;;;;;;25.90;61.50;;;;;;5091989;28;20284;-71
2022/08/11 12:17:49;;;;;;;;;;;25.80;62.50;;;;;;5091938;28;19904;-71
2022/08/11 12:20:18;;;;;;;;;;;25.80;60.80;;;;;;5091894;28;19908;-72
2022/08/11 12:28:13;;;;;;;;;;;26.00;60.30;;;;;;5092125;28;19908;-72
2022/08/11 12:30:40;;;;;;;;;;;26.00;61.40;;;;;;5073546;28;20288;-72
2022/08/11 12:33:06;;;;;;;;;;;26.00;60.90;;;;;;5091798;28;19908;-71
2022/08/11 12:35:34;;;;;;;;;;;26.00;61.30;;;;;;5091884;28;20320;-72
2022/08/11 12:38:01;;;;;;;;;;;26.00;62.60;;;;;;5091788;28;19953;-71
2022/08/11 12:52:00;;;;;;;;;;;26.00;63.00;;;;;;5012079;28;19964;-70
2022/08/11 12:54:45;;;;;;;;;;;25.90;63.30;;;;;;5011809;28;19909;-70
2022/08/11 13:05:31;;;;;;;;;;;26.00;62.90;;;;;;5011642;28;19915;-70
2022/08/11 13:07:59;;;;;;;;;;;25.90;67.20;;;;;;5011468;28;19909;-70
2022/08/11 13:13:10;;;;;;;;;;;26.00;60.30;;;;;;5012060;28;19909;-69
2022/08/11 13:15:36;;;;;;;;;;;26.10;59.30;;;;;;5011450;28;20060;-70
2022/08/11 13:18:02;;;;;;;;;;;26.30;58.40;;;;;;5011472;28;20008;-70
2022/08/11 13:20:28;;;;;;;;;;;26.40;58.80;;;;;;5011278;28;20012;-70
2022/08/11 13:22:56;;;;;;;;;;;26.50;59.20;;;;;;5011493;28;19913;-70
2022/08/11 13:25:23;;;;;;;;;;;26.50;59.20;;;;;;5011470;28;19913;-70
2022/08/11 13:27:50;;;;;;;;;;;26.60;58.70;;;;;;5011542;28;19993;-69
2022/08/11 13:33:01;;;;;;;;;;;26.70;59.50;;;;;;5011614;28;19944;-70
2022/08/11 13:35:30;;;;;;;;;;;26.60;59.40;;;;;;5011322;28;19928;-70
2022/08/11 13:37:56;;;;;;;;;;;26.60;59.60;;;;;;5011222;28;19909;-70
2022/08/11 13:40:24;;;;;;;;;;;26.60;59.70;;;;;;5011023;28;19916;-70
2022/08/11 13:42:51;;;;;;;;;;;26.70;59.80;;;;;;5011360;28;20259;-69
2022/08/11 13:45:17;;;;;;;;;;;26.70;59.20;;;;;;5011123;28;20404;-70
2022/08/11 13:47:43;;;;;;;;;;;26.60;62.20;;;;;;4993917;28;20374;-70
2022/08/11 13:50:12;;;;;;;;;;;26.60;60.10;;;;;;5010975;28;19920;-70
2022/08/11 13:52:38;;;;;;;;;;;26.60;59.40;;;;;;5012979;28;19916;-70
2022/08/11 13:55:05;;;;;;;;;;;26.60;59.60;;;;;;5015060;28;20351;-70
2022/08/11 13:57:35;;;;;;;;;;;26.60;60.20;;;;;;5014710;28;19956;-69
2022/08/11 14:00:10;;;;;;;;;;;26.70;58.70;;;;;;5014651;28;19909;-70
2022/08/11 14:02:40;;;;;;;;;;;26.70;59.50;;;;;;5014944;28;19914;-70
2022/08/11 14:05:10;;;;;;;;;;;26.70;59.40;;;;;;5014726;28;19909;-70
2022/08/11 14:07:41;;;;;;;;;;;26.80;59.60;;;;;;5013489;28;19909;-70
2022/08/11 14:10:09;;;;;;;;;;;27.00;59.10;;;;;;4996888;28;20012;-70
2022/08/11 14:15:26;;;;;;;;;;;27.20;59.00;;;;;;5014519;28;19909;-70
2022/08/11 14:17:55;;;;;;;;;;;27.30;59.00;;;;;;5014612;28;20210;-70
2022/08/11 14:20:21;;;;;;;;;;;27.40;58.60;;;;;;5014282;28;19959;-70
2022/08/11 14:22:48;;;;;;;;;;;27.70;57.00;;;;;;5014492;28;19968;-70
2022/08/11 14:25:15;;;;;;;;;;;27.90;56.90;;;;;;5014392;28;19931;-70
2022/08/11 14:27:42;;;;;;;;;;;28.10;57.60;;;;;;5014308;28;19909;-70
2022/08/11 14:30:53;;;;;;;;;;;28.10;57.90;;;;;;5014007;28;19909;-70
2022/08/11 14:32:55;;;;;;;;;;;28.40;57.60;;;;;;5014285;28;20290;-70
2022/08/11 14:35:21;;;;;;;;;;;28.60;57.40;;;;;;5014228;28;19920;-70
2022/08/11 14:37:47;;;;;;;;;;;28.80;56.60;;;;;;5014107;28;19913;-70
2022/08/11 14:47:03;;;;;;;;;;;29.00;56.00;;;;;;5013947;28;19909;-70
2022/08/11 14:48:28;;;;;;;;;;;30.50;53.50;;;;;;5013741;28;19913;-70
2022/08/11 14:50:55;;;;;;;;;;;31.20;52.90;;;;;;5013691;28;20020;-70
2022/08/11 14:53:21;;;;;;;;;;;31.70;52.30;;;;;;5013972;28;19957;-70
2022/08/11 14:58:32;;;;;;;;;;;32.00;51.70;;;;;;5013781;28;19909;-70
2022/08/11 15:00:59;;;;;;;;;;;32.00;51.40;;;;;;5013709;28;20392;-70
2022/08/11 15:03:26;;;;;;;;;;;31.90;51.90;;;;;;4995536;28;19910;-70
2022/08/11 15:05:53;;;;;;;;;;;31.80;51.90;;;;;;5013591;28;19909;-70
2022/08/11 15:08:19;;;;;;;;;;;31.80;51.80;;;;;;5013805;28;20277;-70
2022/08/11 15:10:46;;;;;;;;;;;31.80;51.80;;;;;;5013570;28;19909;-70
2022/08/11 15:13:17;;;;;;;;;;;31.70;51.40;;;;;;5013536;28;19909;-70
2022/08/11 15:18:27;;;;;;;;;;;31.80;51.40;;;;;;5013096;28;20382;-70
2022/08/11 15:37:35;;;;;;;;;;;31.20;52.10;;;;;;5011313;28;19917;-68
2022/08/11 15:45:49;;;;;;;;;;;30.90;51.90;;;;;;5011600;28;19915;-68
2022/08/11 15:48:21;;;;;;;;;;;30.70;51.50;;;;;;5011231;28;19917;-71
2022/08/11 15:50:50;;;;;;;;;;;30.50;51.50;;;;;;4993594;28;20004;-71
2022/08/11 15:53:25;;;;;;;;;;;30.30;52.40;;;;;;5011387;28;19909;-68
2022/08/11 16:04:10;;;;;;;;;;;29.20;55.70;;;;;;5127996;27;19915;-67
2022/08/11 16:06:38;;;;;;;;;;;28.80;65.40;;;;;;5128578;27;20269;-66
2022/08/11 16:09:04;;;;;;;;;;;28.70;59.00;;;;;;5127721;27;19911;-66
2022/08/11 16:11:33;;;;;;;;;;;28.40;68.70;;;;;;5126980;28;20394;-66
2022/08/11 16:16:47;;;;;;;;;;;28.20;57.10;;;;;;5128278;28;19911;-67
2022/08/11 16:19:13;;;;;;;;;;;28.10;56.40;;;;;;5127639;27;20010;-65
2022/08/11 16:21:41;;;;;;;;;;;28.00;60.20;;;;;;5128203;27;19966;-68
2022/08/11 16:24:11;;;;;;;;;;;27.90;57.90;;;;;;5128070;27;19922;-67
2022/08/11 16:26:40;;;;;;;;;;;27.60;61.30;;;;;;5128019;27;20205;-67
2022/08/11 16:29:06;;;;;;;;;;;27.60;59.40;;;;;;5127229;27;20364;-67
2022/08/11 16:31:32;;;;;;;;;;;27.40;61.50;;;;;;5128129;27;19916;-68
2022/08/11 16:33:59;;;;;;;;;;;27.20;62.20;;;;;;5127642;27;19911;-67
2022/08/11 16:39:10;;;;;;;;;;;27.10;61.00;;;;;;5127385;28;20375;-67
2022/08/11 16:47:09;;;;;;;;;;;26.90;59.60;;;;;;5126372;28;19979;-67
2022/08/11 16:49:36;;;;;;;;;;;27.00;57.80;;;;;;5127504;27;19911;-67
2022/08/11 16:52:04;;;;;;;;;;;27.00;59.90;;;;;;5127539;27;19912;-67
2022/08/11 16:54:31;;;;;;;;;;;26.90;60.00;;;;;;5127348;27;19954;-67
2022/08/11 16:59:12;;;;;;;;;;;26.90;59.50;;;;;;5127259;27;19916;-67
2022/08/11 16:59:44;;;;;;;;;;;26.80;60.30;;;;;;5127063;28;19961;-67
2022/08/11 17:13:07;;;;;;;;;;;26.70;59.80;;;;;;5127175;27;19915;-67
2022/08/11 17:13:47;;;;;;;;;;;26.80;59.50;;;;;;5124695;27;19996;-67
2022/08/11 17:16:19;;;;;;;;;;;27.00;58.40;;;;;;5107560;28;19916;-67
2022/08/11 17:18:49;;;;;;;;;;;27.20;57.80;;;;;;5113110;28;19923;-67
2022/08/11 17:21:15;;;;;;;;;;;27.30;59.60;;;;;;5113417;28;20023;-67
2022/08/11 17:23:46;;;;;;;;;;;27.50;59.00;;;;;;5113242;28;19963;-67
2022/08/11 17:26:15;;;;;;;;;;;27.70;58.40;;;;;;5113305;28;19916;-67
2022/08/11 17:28:41;;;;;;;;;;;27.70;58.90;;;;;;5111109;28;20571;-67
2022/08/11 17:36:39;;;;;;;;;;;28.10;57.40;;;;;;5113061;28;19969;-67
2022/08/11 17:39:07;;;;;;;;;;;28.20;57.50;;;;;;5110841;28;19919;-68
2022/08/11 17:49:49;;;;;;;;;;;28.10;59.50;;;;;;5096558;28;20031;-71
2022/08/11 18:00:30;;;;;;;;;;;28.00;60.80;;;;;;5113282;28;19941;-68
2022/08/11 18:05:44;;;;;;;;;;;27.90;58.90;;;;;;5114003;28;19915;-67
